createdAt,value
2018-02-03T00:00:14.221Z,99803.22
2018-02-03T00:01:16.692Z,99807.33
2018-02-03T00:02:19.169Z,99807.31
2018-02-03T00:03:21.686Z,99806.66
2018-02-03T00:04:24.149Z,99807.86
2018-02-03T00:05:26.629Z,99804.73
2018-02-03T00:06:29.105Z,99804.59
2018-02-03T00:07:31.566Z,99806.91
2018-02-03T00:08:34.043Z,99808.44
2018-02-03T00:09:36.517Z,99804.98
2018-02-03T00:10:38.989Z,99810.47
2018-02-03T00:11:41.444Z,99804.91
2018-02-03T00:12:43.912Z,99803.31
2018-02-03T00:13:46.386Z,99799.75
2018-02-03T00:14:48.865Z,99807.45
2018-02-03T00:15:51.349Z,99803.23
2018-02-03T00:16:53.806Z,99801.45
2018-02-03T00:17:56.276Z,99806.17
2018-02-03T00:18:58.774Z,99801.59
2018-02-03T00:20:01.245Z,99799.81
2018-02-03T00:21:03.706Z,99801.70
2018-02-03T00:22:06.176Z,99803.19
2018-02-03T00:23:08.662Z,99803.72
2018-02-03T00:24:11.152Z,99804.84
2018-02-03T00:25:13.611Z,99803.42
2018-02-03T00:26:16.066Z,99801.28
2018-02-03T00:27:18.537Z,99801.06
2018-02-03T00:28:21.031Z,99801.28
2018-02-03T00:29:23.527Z,99801.64
2018-02-03T00:30:25.997Z,99800.08
2018-02-03T00:31:28.474Z,99805.82
2018-02-03T00:32:30.953Z,99803.46
2018-02-03T00:33:33.428Z,99803.20
2018-02-03T00:34:35.906Z,99807.45
2018-02-03T00:35:38.358Z,99800.87
2018-02-03T00:36:40.823Z,99798.47
2018-02-03T00:37:43.282Z,99796.25
2018-02-03T00:38:45.752Z,99801.55
2018-02-03T00:39:48.230Z,99798.79
2018-02-03T00:40:50.687Z,99803.86
2018-02-03T00:41:53.161Z,99802.80
2018-02-03T00:42:55.622Z,99798.41
2018-02-03T00:43:58.087Z,99803.84
2018-02-03T00:45:00.575Z,99805.19
2018-02-03T00:46:03.107Z,99809.67
2018-02-03T00:47:05.585Z,99806.03
2018-02-03T00:48:08.065Z,99810.71
2018-02-03T00:49:10.537Z,99807.44
2018-02-03T00:50:13.029Z,99811.27
2018-02-03T00:51:15.486Z,99812.17
2018-02-03T00:52:17.950Z,99812.66
2018-02-03T00:53:20.426Z,99809.20
2018-02-03T00:54:22.912Z,99812.72
2018-02-03T00:55:25.412Z,99810.31
2018-02-03T00:56:27.888Z,99806.67
2018-02-03T00:57:30.364Z,99809.30
2018-02-03T00:58:32.837Z,99811.34
2018-02-03T00:59:35.308Z,99802.92
2018-02-03T01:00:37.828Z,99799.94
2018-02-03T01:01:40.300Z,99800.77
2018-02-03T01:02:42.798Z,99797.67
2018-02-03T01:03:45.260Z,99799.06
2018-02-03T01:04:47.733Z,99790.00
2018-02-03T01:05:50.224Z,99800.91
2018-02-03T01:06:52.701Z,99794.11
2018-02-03T01:07:55.177Z,99793.97
2018-02-03T01:08:57.661Z,99796.55
2018-02-03T01:10:00.119Z,99791.06
2018-02-03T01:11:02.617Z,99791.14
2018-02-03T01:12:05.094Z,99791.11
2018-02-03T01:13:07.550Z,99792.66
2018-02-03T01:14:10.045Z,99789.65
2018-02-03T01:15:12.520Z,99790.55
2018-02-03T01:16:15.013Z,99791.42
2018-02-03T01:17:17.488Z,99796.28
2018-02-03T01:18:19.972Z,99795.27
2018-02-03T01:19:22.445Z,99792.82
2018-02-03T01:20:24.912Z,99792.61
2018-02-03T01:21:27.391Z,99795.63
2018-02-03T01:22:29.860Z,99797.44
2018-02-03T01:23:32.320Z,99799.62
2018-02-03T01:24:34.798Z,99795.25
2018-02-03T01:25:37.272Z,99799.25
2018-02-03T01:26:39.754Z,99797.47
2018-02-03T01:27:42.214Z,99806.41
2018-02-03T01:28:44.667Z,99801.20
2018-02-03T01:29:47.144Z,99801.39
2018-02-03T01:30:49.616Z,99803.42
2018-02-03T01:31:52.095Z,99802.00
2018-02-03T01:32:54.571Z,99810.15
2018-02-03T01:33:57.040Z,99804.37
2018-02-03T01:34:59.497Z,99809.09
2018-02-03T01:36:01.959Z,99811.17
2018-02-03T01:37:04.439Z,99807.78
2018-02-03T01:38:06.889Z,99808.77
2018-02-03T01:39:09.351Z,99814.80
2018-02-03T01:40:11.824Z,99817.37
2018-02-03T01:41:14.300Z,99809.53
2018-02-03T01:42:16.784Z,99810.91
2018-02-03T01:43:19.257Z,99813.34
2018-02-03T01:44:21.713Z,99811.92
2018-02-03T01:45:24.167Z,99811.09
2018-02-03T01:46:26.623Z,99819.16
2018-02-03T01:49:07.910Z,99818.55
2018-02-03T01:50:10.384Z,99815.97
2018-02-03T01:51:12.865Z,99818.11
2018-02-03T01:52:15.330Z,99819.92
2018-02-03T01:53:17.799Z,99821.53
2018-02-03T01:54:20.273Z,99821.38
2018-02-03T01:55:22.731Z,99818.69
2018-02-03T01:56:25.190Z,99812.63
2018-02-03T01:57:27.655Z,99819.27
2018-02-03T01:58:30.133Z,99818.17
2018-02-03T01:59:32.604Z,99819.41
2018-02-03T02:00:35.072Z,99819.19
2018-02-03T02:01:37.604Z,99815.81
2018-02-03T02:02:40.049Z,99817.59
2018-02-03T02:03:42.524Z,99815.02
2018-02-03T02:04:44.998Z,99813.95
2018-02-03T02:05:47.454Z,99813.92
2018-02-03T02:06:49.926Z,99819.99
2018-02-03T02:07:52.396Z,99822.47
2018-02-03T02:08:54.847Z,99825.23
2018-02-03T02:09:57.307Z,99822.21
2018-02-03T02:10:59.789Z,99825.27
2018-02-03T02:12:02.275Z,99826.42
2018-02-03T02:13:04.735Z,99827.34
2018-02-03T02:14:07.198Z,99831.88
2018-02-03T02:15:09.697Z,99831.19
2018-02-03T02:16:12.150Z,99836.06
2018-02-03T02:17:14.628Z,99836.20
2018-02-03T02:18:17.087Z,99840.23
2018-02-03T02:19:19.564Z,99842.56
2018-02-03T02:20:22.041Z,99837.14
2018-02-03T02:21:24.513Z,99834.02
2018-02-03T02:22:26.985Z,99839.40
2018-02-03T02:23:29.438Z,99836.67
2018-02-03T02:24:31.890Z,99839.00
2018-02-03T02:25:34.346Z,99833.62
2018-02-03T02:26:36.821Z,99833.95
2018-02-03T02:27:39.274Z,99831.98
2018-02-03T02:28:41.761Z,99833.44
2018-02-03T02:29:44.290Z,99834.53
2018-02-03T02:30:46.722Z,99831.30
2018-02-03T02:31:49.198Z,99832.97
2018-02-03T02:32:51.654Z,99834.09
2018-02-03T02:33:54.128Z,99832.86
2018-02-03T02:34:56.616Z,99833.19
2018-02-03T02:35:59.074Z,99839.00
2018-02-03T02:37:01.545Z,99833.26
2018-02-03T02:38:04.084Z,99836.13
2018-02-03T02:39:06.494Z,99837.77
2018-02-03T02:40:08.956Z,99828.43
2018-02-03T02:41:11.422Z,99833.55
2018-02-03T02:42:13.894Z,99827.92
2018-02-03T02:43:16.374Z,99832.97
2018-02-03T02:44:18.858Z,99826.67
2018-02-03T02:45:21.316Z,99827.91
2018-02-03T02:46:23.784Z,99826.31
2018-02-03T02:47:26.253Z,99820.42
2018-02-03T02:48:28.728Z,99828.09
2018-02-03T02:49:31.333Z,99824.71
2018-02-03T02:50:33.814Z,99824.83
2018-02-03T02:51:36.283Z,99819.99
2018-02-03T02:52:38.765Z,99822.10
2018-02-03T02:53:41.218Z,99827.95
2018-02-03T02:54:43.698Z,99827.63
2018-02-03T02:55:46.158Z,99829.73
2018-02-03T02:56:48.636Z,99828.46
2018-02-03T02:57:51.110Z,99831.15
2018-02-03T02:58:53.586Z,99830.03
2018-02-03T02:59:56.046Z,99829.62
2018-02-03T03:00:58.506Z,99835.55
2018-02-03T03:02:00.989Z,99830.61
2018-02-03T03:03:03.465Z,99831.55
2018-02-03T03:04:05.942Z,99832.89
2018-02-03T03:05:08.412Z,99830.61
2018-02-03T03:06:10.885Z,99833.87
2018-02-03T03:07:13.351Z,99829.40
2018-02-03T03:08:15.815Z,99827.73
2018-02-03T03:09:18.285Z,99829.29
2018-02-03T03:10:20.755Z,99824.31
2018-02-03T03:11:23.245Z,99825.73
2018-02-03T03:12:25.725Z,99824.89
2018-02-03T03:13:28.183Z,99823.41
2018-02-03T03:14:30.643Z,99822.14
2018-02-03T03:15:33.119Z,99824.25
2018-02-03T03:16:35.600Z,99831.30
2018-02-03T03:17:38.056Z,99823.95
2018-02-03T03:18:40.561Z,99832.53
2018-02-03T03:19:43.030Z,99824.17
2018-02-03T03:20:45.492Z,99826.64
2018-02-03T03:21:47.993Z,99827.95
2018-02-03T03:22:50.461Z,99817.27
2018-02-03T03:23:52.945Z,99821.41
2018-02-03T03:24:55.404Z,99813.46
2018-02-03T03:25:57.890Z,99812.62
2018-02-03T03:27:00.361Z,99812.88
2018-02-03T03:28:02.845Z,99813.82
2018-02-03T03:29:05.320Z,99814.14
2018-02-03T03:30:07.787Z,99814.58
2018-02-03T03:31:10.269Z,99808.98
2018-02-03T03:32:12.727Z,99808.09
2018-02-03T03:33:15.182Z,99815.63
2018-02-03T03:34:17.668Z,99816.20
2018-02-03T03:35:20.122Z,99813.44
2018-02-03T03:36:22.594Z,99813.05
2018-02-03T03:37:25.111Z,99816.64
2018-02-03T03:38:27.585Z,99814.24
2018-02-03T03:39:30.051Z,99815.73
2018-02-03T03:40:32.506Z,99810.98
2018-02-03T03:41:34.962Z,99813.45
2018-02-03T03:42:37.421Z,99814.58
2018-02-03T03:43:39.878Z,99817.84
2018-02-03T03:44:42.334Z,99819.89
2018-02-03T03:45:44.813Z,99811.13
2018-02-03T03:46:47.266Z,99811.64
2018-02-03T03:47:49.741Z,99811.97
2018-02-03T03:48:52.194Z,99815.95
2018-02-03T03:49:54.647Z,99817.95
2018-02-03T03:50:57.119Z,99819.95
2018-02-03T03:51:59.621Z,99812.15
2018-02-03T03:53:02.079Z,99823.45
2018-02-03T03:54:04.539Z,99823.02
2018-02-03T03:55:07.012Z,99822.36
2018-02-03T03:56:09.484Z,99822.97
2018-02-03T03:57:11.977Z,99821.52
2018-02-03T03:58:14.448Z,99825.30
2018-02-03T03:59:16.903Z,99818.56
2018-02-03T04:00:19.406Z,99824.89
2018-02-03T04:01:21.920Z,99822.34
2018-02-03T04:02:24.426Z,99819.30
2018-02-03T04:03:26.897Z,99819.48
2018-02-03T04:04:29.371Z,99820.43
2018-02-03T04:05:31.840Z,99822.91
2018-02-03T04:06:34.320Z,99821.45
2018-02-03T04:07:36.803Z,99818.61
2018-02-03T04:08:39.267Z,99817.75
2018-02-03T04:09:41.776Z,99813.71
2018-02-03T04:10:44.252Z,99816.00
2018-02-03T04:11:46.726Z,99812.48
2018-02-03T04:12:49.230Z,99816.77
2018-02-03T04:13:51.700Z,99813.02
2018-02-03T04:14:54.159Z,99814.80
2018-02-03T04:15:56.619Z,99815.42
2018-02-03T04:16:59.074Z,99818.80
2018-02-03T04:18:01.573Z,99818.51
2018-02-03T04:19:04.030Z,99821.99
2018-02-03T04:20:06.482Z,99816.76
2018-02-03T04:21:08.953Z,99820.25
2018-02-03T04:22:11.411Z,99817.59
2018-02-03T04:23:13.905Z,99820.20
2018-02-03T04:24:16.365Z,99819.66
2018-02-03T04:25:18.846Z,99822.60
2018-02-03T04:26:21.322Z,99819.84
2018-02-03T04:27:23.793Z,99811.15
2018-02-03T04:28:26.271Z,99809.91
2018-02-03T04:29:28.754Z,99807.45
2018-02-03T04:30:31.249Z,99805.45
2018-02-03T04:31:33.715Z,99808.55
2018-02-03T04:32:36.165Z,99809.05
2018-02-03T04:33:38.642Z,99809.59
2018-02-03T04:34:41.094Z,99809.09
2018-02-03T04:35:43.561Z,99808.41
2018-02-03T04:36:46.037Z,99807.34
2018-02-03T04:37:48.514Z,99809.39
2018-02-03T04:38:51.005Z,99809.68
2018-02-03T04:39:53.459Z,99811.02
2018-02-03T04:40:55.920Z,99807.25
2018-02-03T04:41:58.376Z,99810.70
2018-02-03T04:43:00.834Z,99811.39
2018-02-03T04:44:03.310Z,99811.64
2018-02-03T04:45:05.770Z,99807.82
2018-02-03T04:46:08.245Z,99805.53
2018-02-03T04:47:10.718Z,99805.63
2018-02-03T04:48:13.183Z,99803.55
2018-02-03T04:49:15.667Z,99801.98
2018-02-03T04:50:18.161Z,99804.57
2018-02-03T04:51:20.614Z,99794.50
2018-02-03T04:52:23.070Z,99800.03
2018-02-03T04:53:25.545Z,99799.41
2018-02-03T04:54:28.075Z,99800.55
2018-02-03T04:55:30.549Z,99802.29
2018-02-03T04:56:33.040Z,99800.30
2018-02-03T04:57:35.494Z,99800.04
2018-02-03T04:58:37.950Z,99799.60
2018-02-03T04:59:40.442Z,99796.19
2018-02-03T05:00:42.933Z,99792.77
2018-02-03T05:01:45.404Z,99794.48
2018-02-03T05:02:47.901Z,99796.95
2018-02-03T05:03:50.362Z,99791.58
2018-02-03T05:04:52.850Z,99794.92
2018-02-03T05:05:55.388Z,99789.77
2018-02-03T05:06:57.872Z,99786.45
2018-02-03T05:08:00.353Z,99784.53
2018-02-03T05:09:02.806Z,99793.28
2018-02-03T05:10:05.304Z,99793.02
2018-02-03T05:11:07.763Z,99781.28
2018-02-03T05:12:10.218Z,99784.48
2018-02-03T05:13:12.717Z,99785.13
2018-02-03T05:14:15.197Z,99784.69
2018-02-03T05:15:17.688Z,99785.88
2018-02-03T05:16:20.169Z,99786.10
2018-02-03T05:17:22.678Z,99786.13
2018-02-03T05:18:25.176Z,99782.14
2018-02-03T05:19:27.642Z,99777.38
2018-02-03T05:20:30.126Z,99780.33
2018-02-03T05:21:32.582Z,99779.83
2018-02-03T05:22:35.063Z,99778.63
2018-02-03T05:23:37.537Z,99773.65
2018-02-03T05:24:40.013Z,99778.95
2018-02-03T05:25:42.508Z,99780.05
2018-02-03T05:26:44.962Z,99780.78
2018-02-03T05:27:47.437Z,99778.16
2018-02-03T05:28:49.903Z,99781.00
2018-02-03T05:29:52.373Z,99779.37
2018-02-03T05:30:54.864Z,99780.13
2018-02-03T05:31:57.333Z,99780.89
2018-02-03T05:32:59.794Z,99775.16
2018-02-03T05:34:02.246Z,99776.31
2018-02-03T05:35:04.721Z,99774.66
2018-02-03T05:36:07.237Z,99779.08
2018-02-03T05:37:09.708Z,99771.92
2018-02-03T05:38:12.165Z,99771.19
2018-02-03T05:39:14.633Z,99777.40
2018-02-03T05:40:17.091Z,99774.52
2018-02-03T05:41:19.581Z,99769.72
2018-02-03T05:42:22.034Z,99774.00
2018-02-03T05:43:24.514Z,99776.83
2018-02-03T05:44:29.589Z,99768.36
2018-02-03T05:45:32.073Z,99775.48
2018-02-03T05:46:34.573Z,99773.12
2018-02-03T05:47:37.052Z,99776.83
2018-02-03T05:48:39.515Z,99772.69
2018-02-03T05:49:41.971Z,99768.11
2018-02-03T05:50:44.435Z,99772.98
2018-02-03T05:51:46.890Z,99769.42
2018-02-03T05:52:49.361Z,99771.91
2018-02-03T05:53:51.823Z,99765.94
2018-02-03T05:54:54.296Z,99762.92
2018-02-03T05:55:56.758Z,99764.02
2018-02-03T05:56:59.213Z,99758.18
2018-02-03T05:58:01.684Z,99761.45
2018-02-03T05:59:04.157Z,99758.63
2018-02-03T06:00:06.626Z,99755.14
2018-02-03T06:01:09.101Z,99757.38
2018-02-03T06:02:11.579Z,99753.75
2018-02-03T06:03:14.108Z,99756.95
2018-02-03T06:04:16.583Z,99755.88
2018-02-03T06:05:19.045Z,99757.59
2018-02-03T06:06:21.512Z,99758.78
2018-02-03T06:07:23.985Z,99763.98
2018-02-03T06:08:26.457Z,99759.69
2018-02-03T06:09:28.933Z,99759.50
2018-02-03T06:10:31.403Z,99757.57
2018-02-03T06:11:33.858Z,99754.56
2018-02-03T06:12:36.329Z,99759.10
2018-02-03T06:13:38.792Z,99753.73
2018-02-03T06:14:41.246Z,99760.27
2018-02-03T06:15:43.720Z,99757.84
2018-02-03T06:16:46.174Z,99753.51
2018-02-03T06:17:48.626Z,99757.41
2018-02-03T06:18:51.083Z,99753.98
2018-02-03T06:19:53.543Z,99755.70
2018-02-03T06:20:56.016Z,99754.72
2018-02-03T06:21:58.470Z,99747.53
2018-02-03T06:23:00.950Z,99753.78
2018-02-03T06:24:03.406Z,99756.51
2018-02-03T06:25:05.916Z,99747.61
2018-02-03T06:26:08.357Z,99758.80
2018-02-03T06:27:10.840Z,99755.61
2018-02-03T06:28:13.319Z,99753.11
2018-02-03T06:29:15.780Z,99761.94
2018-02-03T06:30:18.257Z,99757.36
2018-02-03T06:31:20.715Z,99751.77
2018-02-03T06:32:23.170Z,99766.12
2018-02-03T06:33:25.649Z,99756.38
2018-02-03T06:34:28.110Z,99762.63
2018-02-03T06:35:30.583Z,99762.55
2018-02-03T06:36:33.046Z,99766.84
2018-02-03T06:37:35.654Z,99756.92
2018-02-03T06:38:38.114Z,99755.65
2018-02-03T06:39:40.578Z,99752.20
2018-02-03T06:40:43.051Z,99757.64
2018-02-03T06:41:45.525Z,99753.47
2018-02-03T06:42:47.996Z,99759.13
2018-02-03T06:43:50.477Z,99759.67
2018-02-03T06:44:52.938Z,99760.79
2018-02-03T06:45:55.391Z,99762.28
2018-02-03T06:46:57.860Z,99765.17
2018-02-03T06:48:00.326Z,99762.16
2018-02-03T06:49:02.800Z,99764.87
2018-02-03T06:50:05.277Z,99766.40
2018-02-03T06:51:07.744Z,99765.55
2018-02-03T06:52:10.198Z,99765.66
2018-02-03T06:53:12.669Z,99767.36
2018-02-03T06:54:15.145Z,99774.80
2018-02-03T06:55:17.629Z,99771.20
2018-02-03T06:56:20.104Z,99769.78
2018-02-03T06:57:22.558Z,99766.40
2018-02-03T06:58:25.037Z,99765.02
2018-02-03T06:59:27.520Z,99764.00
2018-02-03T07:00:29.982Z,99764.11
2018-02-03T07:01:32.461Z,99769.15
2018-02-03T07:02:35.022Z,99765.15
2018-02-03T07:03:37.478Z,99772.63
2018-02-03T07:04:39.953Z,99768.84
2018-02-03T07:05:42.419Z,99767.60
2018-02-03T07:06:44.891Z,99770.72
2018-02-03T07:07:47.373Z,99773.83
2018-02-03T07:08:49.844Z,99772.37
2018-02-03T07:09:52.299Z,99772.73
2018-02-03T07:10:54.776Z,99773.27
2018-02-03T07:11:57.318Z,99773.23
2018-02-03T07:12:59.827Z,99771.41
2018-02-03T07:14:02.300Z,99770.96
2018-02-03T07:15:04.773Z,99764.83
2018-02-03T07:16:07.244Z,99771.27
2018-02-03T07:17:09.703Z,99772.17
2018-02-03T07:18:12.178Z,99767.64
2018-02-03T07:19:14.652Z,99769.16
2018-02-03T07:20:17.102Z,99772.89
2018-02-03T07:21:19.570Z,99768.31
2018-02-03T07:22:22.026Z,99775.34
2018-02-03T07:23:24.508Z,99768.40
2018-02-03T07:24:26.973Z,99769.91
2018-02-03T07:25:29.453Z,99770.41
2018-02-03T07:26:31.919Z,99772.72
2018-02-03T07:27:34.405Z,99774.86
2018-02-03T07:28:36.875Z,99775.56
2018-02-03T07:29:40.597Z,99775.88
2018-02-03T07:30:43.519Z,99770.67
2018-02-03T07:31:46.002Z,99773.53
2018-02-03T07:32:48.526Z,99777.56
2018-02-03T07:33:50.991Z,99775.52
2018-02-03T07:34:53.678Z,99776.62
2018-02-03T07:35:56.327Z,99781.29
2018-02-03T07:36:58.818Z,99777.44
2018-02-03T07:38:01.410Z,99781.12
2018-02-03T07:39:03.898Z,99778.72
2018-02-03T07:40:06.358Z,99782.97
2018-02-03T07:41:08.829Z,99780.17
2018-02-03T07:42:11.477Z,99783.60
2018-02-03T07:43:14.032Z,99782.75
2018-02-03T07:44:16.517Z,99781.88
2018-02-03T07:45:18.992Z,99781.82
2018-02-03T07:46:21.469Z,99783.73
2018-02-03T07:47:23.952Z,99785.05
2018-02-03T07:48:26.421Z,99779.89
2018-02-03T07:49:28.901Z,99779.45
2018-02-03T07:50:31.385Z,99779.00
2018-02-03T07:51:33.860Z,99781.45
2018-02-03T07:52:36.341Z,99784.15
2018-02-03T07:53:38.806Z,99780.37
2018-02-03T07:54:41.272Z,99781.30
2018-02-03T07:55:43.730Z,99774.54
2018-02-03T07:56:46.209Z,99773.11
2018-02-03T07:57:48.679Z,99780.92
2018-02-03T07:58:51.135Z,99772.35
2018-02-03T07:59:53.631Z,99775.86
2018-02-03T08:00:56.095Z,99776.20
2018-02-03T08:01:58.594Z,99776.95
2018-02-03T08:03:01.055Z,99774.78
2018-02-03T08:04:03.511Z,99781.84
2018-02-03T08:05:05.976Z,99774.16
2018-02-03T08:06:08.442Z,99779.44
2018-02-03T08:07:10.912Z,99782.13
2018-02-03T08:08:13.372Z,99775.60
2018-02-03T08:09:15.838Z,99774.58
2018-02-03T08:10:18.318Z,99770.00
2018-02-03T08:11:20.774Z,99773.30
2018-02-03T08:12:23.245Z,99775.02
2018-02-03T08:13:25.718Z,99773.41
2018-02-03T08:14:28.183Z,99773.77
2018-02-03T08:15:30.653Z,99774.69
2018-02-03T08:16:33.152Z,99770.68
2018-02-03T08:17:35.638Z,99774.01
2018-02-03T08:18:38.117Z,99774.98
2018-02-03T08:19:40.627Z,99770.41
2018-02-03T08:20:43.090Z,99769.78
2018-02-03T08:21:45.554Z,99769.15
2018-02-03T08:22:48.008Z,99769.47
2018-02-03T08:23:50.480Z,99771.37
2018-02-03T08:24:52.940Z,99773.09
2018-02-03T08:25:55.425Z,99766.16
2018-02-03T08:26:57.914Z,99770.45
2018-02-03T08:28:00.371Z,99761.00
2018-02-03T08:29:02.855Z,99769.61
2018-02-03T08:30:05.372Z,99764.67
2018-02-03T08:31:07.844Z,99761.92
2018-02-03T08:32:10.313Z,99762.50
2018-02-03T08:33:12.793Z,99760.33
2018-02-03T08:34:15.289Z,99758.95
2018-02-03T08:35:17.744Z,99754.24
2018-02-03T08:36:20.210Z,99749.72
2018-02-03T08:37:22.939Z,99762.27
2018-02-03T08:38:25.787Z,99760.89
2018-02-03T08:39:28.582Z,99759.34
2018-02-03T08:40:31.058Z,99760.33
2018-02-03T08:41:33.519Z,99761.12
2018-02-03T08:42:35.974Z,99759.63
2018-02-03T08:43:38.443Z,99756.91
2018-02-03T08:44:40.906Z,99758.40
2018-02-03T08:45:43.376Z,99761.49
2018-02-03T08:46:45.834Z,99757.75
2018-02-03T08:47:48.334Z,99757.47
2018-02-03T08:48:50.813Z,99759.56
2018-02-03T08:49:53.283Z,99751.92
2018-02-03T08:50:55.848Z,99747.53
2018-02-03T08:51:58.354Z,99753.61
2018-02-03T08:53:00.833Z,99755.62
2018-02-03T08:54:03.298Z,99758.14
2018-02-03T08:55:05.773Z,99756.94
2018-02-03T08:56:08.235Z,99762.40
2018-02-03T08:57:10.693Z,99762.09
2018-02-03T08:58:13.158Z,99758.05
2018-02-03T08:59:15.625Z,99760.84
2018-02-03T09:00:18.086Z,99763.95
2018-02-03T09:01:20.550Z,99761.11
2018-02-03T09:02:23.031Z,99762.04
2018-02-03T09:03:25.516Z,99764.98
2018-02-03T09:04:27.974Z,99758.27
2018-02-03T09:05:30.445Z,99757.91
2018-02-03T09:06:32.980Z,99763.06
2018-02-03T09:07:35.456Z,99762.13
2018-02-03T09:08:37.910Z,99761.33
2018-02-03T09:09:40.375Z,99764.42
2018-02-03T09:10:42.839Z,99768.47
2018-02-03T09:11:57.199Z,99770.52
2018-02-03T09:12:59.677Z,99767.00
2018-02-03T09:14:02.151Z,99768.02
2018-02-03T09:15:04.611Z,99768.30
2018-02-03T09:16:07.079Z,99766.89
2018-02-03T09:17:09.564Z,99770.09
2018-02-03T09:18:12.296Z,99771.20
2018-02-03T09:19:14.808Z,99763.86
2018-02-03T09:20:17.299Z,99759.28
2018-02-03T09:21:20.067Z,99757.86
2018-02-03T09:22:22.594Z,99758.01
2018-02-03T09:23:25.295Z,99754.72
2018-02-03T09:24:27.818Z,99757.73
2018-02-03T09:25:30.290Z,99756.36
2018-02-03T09:26:32.766Z,99757.25
2018-02-03T09:27:35.256Z,99756.59
2018-02-03T09:28:37.738Z,99750.59
2018-02-03T09:29:40.225Z,99753.73
2018-02-03T09:30:42.700Z,99751.96
2018-02-03T09:31:45.185Z,99750.72
2018-02-03T09:32:47.661Z,99756.14
2018-02-03T09:33:50.127Z,99744.67
2018-02-03T09:34:52.679Z,99748.08
2018-02-03T09:35:55.161Z,99746.43
2018-02-03T09:36:57.695Z,99747.23
2018-02-03T09:38:00.163Z,99744.23
2018-02-03T09:39:02.631Z,99749.38
2018-02-03T09:40:05.123Z,99740.06
2018-02-03T09:41:07.590Z,99744.50
2018-02-03T09:42:10.061Z,99737.84
2018-02-03T09:43:12.537Z,99737.73
2018-02-03T09:44:15.010Z,99745.55
2018-02-03T09:45:17.495Z,99741.84
2018-02-03T09:46:19.971Z,99741.78
2018-02-03T09:47:22.438Z,99738.48
2018-02-03T09:48:24.921Z,99739.69
2018-02-03T09:49:27.391Z,99737.80
2018-02-03T09:50:29.869Z,99736.51
2018-02-03T09:51:32.376Z,99738.77
2018-02-03T09:52:34.863Z,99737.39
2018-02-03T09:53:37.348Z,99735.35
2018-02-03T09:54:39.841Z,99735.71
2018-02-03T09:55:42.308Z,99735.53
2018-02-03T09:56:44.776Z,99738.78
2018-02-03T09:57:47.258Z,99740.47
2018-02-03T09:58:49.726Z,99745.48
2018-02-03T09:59:52.212Z,99744.00
2018-02-03T10:00:54.697Z,99742.04
2018-02-03T10:01:57.172Z,99739.84
2018-02-03T10:02:59.643Z,99734.96
2018-02-03T10:04:02.109Z,99737.28
2018-02-03T10:05:04.592Z,99734.03
2018-02-03T10:06:07.058Z,99738.25
2018-02-03T10:07:09.523Z,99743.11
2018-02-03T10:08:11.987Z,99735.41
2018-02-03T10:09:14.455Z,99735.89
2018-02-03T10:10:16.923Z,99733.75
2018-02-03T10:11:19.387Z,99735.48
2018-02-03T10:12:21.864Z,99736.47
2018-02-03T10:13:24.364Z,99731.56
2018-02-03T10:14:26.822Z,99736.47
2018-02-03T10:15:29.301Z,99734.65
2018-02-03T10:16:31.776Z,99724.38
2018-02-03T10:17:34.405Z,99724.52
2018-02-03T10:18:36.986Z,99726.59
2018-02-03T10:19:39.454Z,99724.95
2018-02-03T10:20:41.923Z,99723.31
2018-02-03T10:21:44.473Z,99720.88
2018-02-03T10:22:46.935Z,99723.38
2018-02-03T10:23:49.409Z,99725.45
2018-02-03T10:24:51.942Z,99726.16
2018-02-03T10:25:54.407Z,99721.15
2018-02-03T10:26:56.887Z,99722.45
2018-02-03T10:27:59.346Z,99725.53
2018-02-03T10:29:01.809Z,99726.30
2018-02-03T10:30:04.335Z,99725.82
2018-02-03T10:31:06.819Z,99718.48
2018-02-03T10:32:09.279Z,99725.13
2018-02-03T10:33:11.797Z,99726.06
2018-02-03T10:34:14.262Z,99723.88
2018-02-03T10:35:16.728Z,99725.39
2018-02-03T10:36:19.205Z,99721.19
2018-02-03T10:37:21.676Z,99724.08
2018-02-03T10:38:24.163Z,99724.84
2018-02-03T10:39:26.631Z,99722.44
2018-02-03T10:40:29.092Z,99724.14
2018-02-03T10:41:31.569Z,99723.69
2018-02-03T10:42:34.030Z,99728.19
2018-02-03T10:43:36.510Z,99717.70
2018-02-03T10:44:38.989Z,99722.73
2018-02-03T10:45:41.472Z,99720.52
2018-02-03T10:46:43.940Z,99726.34
2018-02-03T10:47:46.515Z,99726.70
2018-02-03T10:48:48.984Z,99729.98
2018-02-03T10:49:51.460Z,99734.87
2018-02-03T10:50:53.941Z,99731.42
2018-02-03T10:51:56.429Z,99735.92
2018-02-03T10:52:58.891Z,99736.63
2018-02-03T10:54:01.374Z,99730.67
2018-02-03T10:55:03.872Z,99732.19
2018-02-03T10:56:06.331Z,99738.23
2018-02-03T10:57:08.823Z,99730.49
2018-02-03T10:58:11.325Z,99727.84
2018-02-03T10:59:13.856Z,99733.30
2018-02-03T11:00:16.334Z,99733.26
2018-02-03T11:01:18.821Z,99732.81
2018-02-03T11:02:21.283Z,99732.95
2018-02-03T11:03:23.757Z,99729.56
2018-02-03T11:04:26.281Z,99732.68
2018-02-03T11:05:28.746Z,99731.41
2018-02-03T11:06:31.227Z,99730.78
2018-02-03T11:07:33.719Z,99725.63
2018-02-03T11:08:36.204Z,99723.40
2018-02-03T11:09:38.690Z,99730.41
2018-02-03T11:10:41.158Z,99715.62
2018-02-03T11:11:43.633Z,99719.45
2018-02-03T11:12:46.183Z,99719.80
2018-02-03T11:13:48.646Z,99716.97
2018-02-03T11:14:51.111Z,99717.91
2018-02-03T11:15:53.585Z,99719.45
2018-02-03T11:16:56.044Z,99716.66
2018-02-03T11:17:58.518Z,99715.62
2018-02-03T11:19:00.980Z,99713.81
2018-02-03T11:20:03.446Z,99708.66
2018-02-03T11:21:05.921Z,99711.19
2018-02-03T11:22:08.396Z,99714.28
2018-02-03T11:23:10.860Z,99707.91
2018-02-03T11:24:13.338Z,99712.38
2018-02-03T11:25:15.799Z,99712.16
2018-02-03T11:26:18.293Z,99713.48
2018-02-03T11:27:20.751Z,99704.20
2018-02-03T11:28:23.225Z,99707.71
2018-02-03T11:29:25.695Z,99699.80
2018-02-03T11:30:28.146Z,99703.70
2018-02-03T11:31:30.611Z,99703.27
2018-02-03T11:32:33.102Z,99707.97
2018-02-03T11:33:35.577Z,99702.95
2018-02-03T11:34:38.069Z,99701.94
2018-02-03T11:35:40.545Z,99704.23
2018-02-03T11:36:43.006Z,99707.56
2018-02-03T11:37:45.481Z,99706.36
2018-02-03T11:38:47.957Z,99698.86
2018-02-03T11:39:50.436Z,99697.83
2018-02-03T11:40:52.908Z,99706.27
2018-02-03T11:41:55.371Z,99700.54
2018-02-03T11:42:57.834Z,99698.94
2018-02-03T11:44:00.313Z,99706.39
2018-02-03T11:45:02.794Z,99702.04
2018-02-03T11:46:05.273Z,99706.92
2018-02-03T11:47:07.765Z,99711.80
2018-02-03T11:48:10.241Z,99705.46
2018-02-03T11:49:12.746Z,99706.04
2018-02-03T11:50:15.206Z,99711.89
2018-02-03T11:51:17.663Z,99708.52
2018-02-03T11:52:20.137Z,99710.47
2018-02-03T11:53:22.609Z,99708.87
2018-02-03T11:54:25.077Z,99706.47
2018-02-03T11:55:27.562Z,99707.44
2018-02-03T11:56:30.038Z,99703.09
2018-02-03T11:57:32.508Z,99704.06
2018-02-03T11:58:35.122Z,99703.27
2018-02-03T11:59:37.597Z,99707.56
2018-02-03T12:00:40.055Z,99704.19
2018-02-03T12:01:42.515Z,99708.48
2018-02-03T12:02:44.996Z,99705.91
2018-02-03T12:03:47.477Z,99705.11
2018-02-03T12:04:49.945Z,99705.69
2018-02-03T12:05:52.414Z,99706.44
2018-02-03T12:06:54.875Z,99708.94
2018-02-03T12:07:57.356Z,99703.61
2018-02-03T12:08:59.837Z,99705.55
2018-02-03T12:10:02.295Z,99694.73
2018-02-03T12:11:04.759Z,99702.58
2018-02-03T12:12:07.227Z,99705.11
2018-02-03T12:13:09.709Z,99705.28
2018-02-03T12:14:12.184Z,99705.85
2018-02-03T12:15:14.702Z,99706.20